Weather at Kratie Airport [CLOSED]

Public forecast

Using degrees Celsius for public forecast. Weather courtesy of forecast.io.

Closest aviation weather report (METAR) to Kratie Airport

Closest report is Phnom Penh International Airport, 90.9 nm (168.3 km) SW.

2024/07/24 03:30 (retrieved 35 minutes ago)

VDPP 240330Z 21013KT 9999 SCT017 BKN040 31/24 Q1005

Closest aviation forecast (TAF) to Kratie Airport

Forecast is more than 12 hours old.

Closest forecast is Car Nicobar Air Force Base, 805.6 nm (1,492.0 km) WSW.

2024/07/23 12:00 (retrieved 16 hours ago)

TAF VOCX 230930Z 2312/2324 22010KT 6000 SCT015 BKN090 TEMPO 1215/1217 24010G20KT 5000 RA SCT015 FEW025TCU BKN090